sensor_id;sensor_type;location;lat;lon;timestamp;P1;durP1;ratioP1;P2;durP2;ratioP2
6203;SDS011;3135;42.602;23.468;2023-06-10T00:00:15;2.42;;;2.22;;
6203;SDS011;3135;42.602;23.468;2023-06-10T00:02:41;2.42;;;2.22;;
6203;SDS011;3135;42.602;23.468;2023-06-10T00:05:07;2.92;;;2.72;;
6203;SDS011;3135;42.602;23.468;2023-06-10T00:07:33;3.55;;;2.58;;
6203;SDS011;3135;42.602;23.468;2023-06-10T00:10:03;6.38;;;2.80;;
6203;SDS011;3135;42.602;23.468;2023-06-10T00:12:31;5.50;;;2.90;;
6203;SDS011;3135;42.602;23.468;2023-06-10T00:15:02;3.45;;;2.67;;
6203;SDS011;3135;42.602;23.468;2023-06-10T00:17:29;3.08;;;2.70;;
6203;SDS011;3135;42.602;23.468;2023-06-10T00:19:55;3.90;;;2.40;;
6203;SDS011;3135;42.602;23.468;2023-06-10T00:22:20;2.93;;;2.67;;
6203;SDS011;3135;42.602;23.468;2023-06-10T00:24:47;3.20;;;2.90;;
6203;SDS011;3135;42.602;23.468;2023-06-10T00:27:12;5.37;;;2.67;;
6203;SDS011;3135;42.602;23.468;2023-06-10T00:29:38;4.13;;;2.80;;
6203;SDS011;3135;42.602;23.468;2023-06-10T00:32:04;4.70;;;3.10;;
6203;SDS011;3135;42.602;23.468;2023-06-10T00:34:30;4.37;;;3.13;;
6203;SDS011;3135;42.602;23.468;2023-06-10T00:36:57;5.13;;;3.60;;
6203;SDS011;3135;42.602;23.468;2023-06-10T00:39:23;5.97;;;3.78;;
6203;SDS011;3135;42.602;23.468;2023-06-10T00:41:48;6.05;;;3.92;;
6203;SDS011;3135;42.602;23.468;2023-06-10T00:44:14;5.93;;;4.47;;
6203;SDS011;3135;42.602;23.468;2023-06-10T00:46:40;6.30;;;4.30;;
6203;SDS011;3135;42.602;23.468;2023-06-10T00:49:06;7.13;;;4.60;;
6203;SDS011;3135;42.602;23.468;2023-06-10T00:51:31;6.13;;;4.23;;
6203;SDS011;3135;42.602;23.468;2023-06-10T00:53:57;7.77;;;4.77;;
6203;SDS011;3135;42.602;23.468;2023-06-10T00:56:23;7.50;;;5.40;;
6203;SDS011;3135;42.602;23.468;2023-06-10T00:58:48;6.00;;;4.43;;
6203;SDS011;3135;42.602;23.468;2023-06-10T01:01:14;6.65;;;4.63;;
6203;SDS011;3135;42.602;23.468;2023-06-10T01:03:39;5.75;;;4.45;;
6203;SDS011;3135;42.602;23.468;2023-06-10T01:11:36;9.10;;;5.60;;
6203;SDS011;3135;42.602;23.468;2023-06-10T01:14:19;8.88;;;5.13;;
6203;SDS011;3135;42.602;23.468;2023-06-10T01:16:45;5.90;;;5.07;;
6203;SDS011;3135;42.602;23.468;2023-06-10T01:19:11;9.63;;;6.37;;
6203;SDS011;3135;42.602;23.468;2023-06-10T01:21:38;11.27;;;7.20;;
6203;SDS011;3135;42.602;23.468;2023-06-10T01:24:04;8.93;;;6.47;;
6203;SDS011;3135;42.602;23.468;2023-06-10T01:26:33;9.38;;;6.15;;
6203;SDS011;3135;42.602;23.468;2023-06-10T01:29:05;9.88;;;5.50;;
6203;SDS011;3135;42.602;23.468;2023-06-10T01:34:14;8.48;;;5.47;;
6203;SDS011;3135;42.602;23.468;2023-06-10T01:36:44;8.75;;;5.68;;
6203;SDS011;3135;42.602;23.468;2023-06-10T01:39:13;6.20;;;5.00;;
6203;SDS011;3135;42.602;23.468;2023-06-10T01:41:41;8.90;;;5.28;;
6203;SDS011;3135;42.602;23.468;2023-06-10T01:44:06;7.05;;;5.05;;
6203;SDS011;3135;42.602;23.468;2023-06-10T01:46:32;7.90;;;5.40;;
6203;SDS011;3135;42.602;23.468;2023-06-10T01:48:57;8.80;;;5.10;;
6203;SDS011;3135;42.602;23.468;2023-06-10T01:51:23;8.53;;;5.00;;
6203;SDS011;3135;42.602;23.468;2023-06-10T01:53:48;8.70;;;5.40;;
6203;SDS011;3135;42.602;23.468;2023-06-10T01:56:13;10.60;;;5.80;;
6203;SDS011;3135;42.602;23.468;2023-06-10T01:58:44;7.32;;;5.25;;
6203;SDS011;3135;42.602;23.468;2023-06-10T02:01:10;9.13;;;5.57;;
6203;SDS011;3135;42.602;23.468;2023-06-10T02:03:36;10.48;;;5.88;;
6203;SDS011;3135;42.602;23.468;2023-06-10T02:06:01;8.80;;;5.60;;
6203;SDS011;3135;42.602;23.468;2023-06-10T02:08:27;10.87;;;7.03;;
6203;SDS011;3135;42.602;23.468;2023-06-10T02:10:55;9.77;;;5.78;;
6203;SDS011;3135;42.602;23.468;2023-06-10T02:13:20;10.23;;;6.20;;
6203;SDS011;3135;42.602;23.468;2023-06-10T02:15:46;11.80;;;5.93;;
6203;SDS011;3135;42.602;23.468;2023-06-10T02:18:11;11.23;;;7.17;;
6203;SDS011;3135;42.602;23.468;2023-06-10T02:20:37;10.30;;;6.90;;
6203;SDS011;3135;42.602;23.468;2023-06-10T02:23:03;12.07;;;6.65;;
6203;SDS011;3135;42.602;23.468;2023-06-10T02:25:28;11.30;;;6.90;;
6203;SDS011;3135;42.602;23.468;2023-06-10T02:27:54;8.47;;;5.80;;
6203;SDS011;3135;42.602;23.468;2023-06-10T02:30:19;10.97;;;6.37;;
6203;SDS011;3135;42.602;23.468;2023-06-10T02:32:45;9.77;;;5.82;;
6203;SDS011;3135;42.602;23.468;2023-06-10T02:35:13;9.45;;;5.20;;
6203;SDS011;3135;42.602;23.468;2023-06-10T02:37:39;8.38;;;5.72;;
6203;SDS011;3135;42.602;23.468;2023-06-10T02:40:05;6.43;;;5.10;;
6203;SDS011;3135;42.602;23.468;2023-06-10T02:42:31;6.50;;;4.25;;
6203;SDS011;3135;42.602;23.468;2023-06-10T02:44:56;7.10;;;4.20;;
6203;SDS011;3135;42.602;23.468;2023-06-10T02:47:22;5.20;;;4.00;;
6203;SDS011;3135;42.602;23.468;2023-06-10T02:49:47;7.90;;;4.30;;
6203;SDS011;3135;42.602;23.468;2023-06-10T02:52:12;6.73;;;4.47;;
6203;SDS011;3135;42.602;23.468;2023-06-10T02:54:38;7.23;;;4.30;;
6203;SDS011;3135;42.602;23.468;2023-06-10T02:57:04;4.57;;;3.92;;
6203;SDS011;3135;42.602;23.468;2023-06-10T02:59:31;5.17;;;4.13;;
6203;SDS011;3135;42.602;23.468;2023-06-10T03:01:57;5.75;;;3.88;;
6203;SDS011;3135;42.602;23.468;2023-06-10T03:04:22;4.10;;;3.70;;
6203;SDS011;3135;42.602;23.468;2023-06-10T03:06:50;5.25;;;3.55;;
6203;SDS011;3135;42.602;23.468;2023-06-10T03:09:16;5.05;;;3.50;;
6203;SDS011;3135;42.602;23.468;2023-06-10T03:11:41;4.90;;;3.50;;
6203;SDS011;3135;42.602;23.468;2023-06-10T03:14:06;4.80;;;3.10;;
6203;SDS011;3135;42.602;23.468;2023-06-10T03:16:32;4.53;;;3.43;;
6203;SDS011;3135;42.602;23.468;2023-06-10T03:18:57;3.50;;;3.20;;
6203;SDS011;3135;42.602;23.468;2023-06-10T03:21:23;5.03;;;3.10;;
6203;SDS011;3135;42.602;23.468;2023-06-10T03:23:48;3.43;;;3.10;;
6203;SDS011;3135;42.602;23.468;2023-06-10T03:26:13;6.00;;;3.30;;
6203;SDS011;3135;42.602;23.468;2023-06-10T03:28:40;5.78;;;2.88;;
6203;SDS011;3135;42.602;23.468;2023-06-10T03:31:06;7.95;;;3.28;;
6203;SDS011;3135;42.602;23.468;2023-06-10T03:33:31;6.55;;;3.35;;
6203;SDS011;3135;42.602;23.468;2023-06-10T03:35:57;2.80;;;2.60;;
6203;SDS011;3135;42.602;23.468;2023-06-10T03:38:23;2.87;;;2.67;;
6203;SDS011;3135;42.602;23.468;2023-06-10T03:40:49;3.33;;;2.97;;
6203;SDS011;3135;42.602;23.468;2023-06-10T03:43:14;3.92;;;2.90;;
6203;SDS011;3135;42.602;23.468;2023-06-10T03:45:39;4.50;;;2.83;;
6203;SDS011;3135;42.602;23.468;2023-06-10T03:48:06;5.32;;;2.83;;
6203;SDS011;3135;42.602;23.468;2023-06-10T03:50:33;6.22;;;3.67;;
6203;SDS011;3135;42.602;23.468;2023-06-10T03:52:59;5.65;;;4.05;;
6203;SDS011;3135;42.602;23.468;2023-06-10T03:55:25;7.40;;;4.43;;
6203;SDS011;3135;42.602;23.468;2023-06-10T03:57:51;13.63;;;7.35;;
6203;SDS011;3135;42.602;23.468;2023-06-10T04:00:16;12.07;;;7.50;;
6203;SDS011;3135;42.602;23.468;2023-06-10T04:02:43;13.77;;;7.70;;
6203;SDS011;3135;42.602;23.468;2023-06-10T04:05:14;9.32;;;6.60;;
6203;SDS011;3135;42.602;23.468;2023-06-10T04:07:41;11.20;;;6.93;;
6203;SDS011;3135;42.602;23.468;2023-06-10T04:10:08;12.63;;;7.53;;
6203;SDS011;3135;42.602;23.468;2023-06-10T04:12:34;13.05;;;7.63;;
6203;SDS011;3135;42.602;23.468;2023-06-10T04:14:59;12.82;;;8.50;;
6203;SDS011;3135;42.602;23.468;2023-06-10T04:17:25;16.07;;;9.00;;
6203;SDS011;3135;42.602;23.468;2023-06-10T04:19:51;14.05;;;8.25;;
6203;SDS011;3135;42.602;23.468;2023-06-10T04:22:17;14.73;;;8.03;;
6203;SDS011;3135;42.602;23.468;2023-06-10T04:24:43;16.43;;;8.73;;
6203;SDS011;3135;42.602;23.468;2023-06-10T04:27:09;17.50;;;9.60;;
6203;SDS011;3135;42.602;23.468;2023-06-10T04:29:35;17.00;;;9.60;;
6203;SDS011;3135;42.602;23.468;2023-06-10T04:32:01;16.58;;;10.13;;
6203;SDS011;3135;42.602;23.468;2023-06-10T04:34:27;21.08;;;11.13;;
6203;SDS011;3135;42.602;23.468;2023-06-10T04:36:52;16.98;;;9.80;;
6203;SDS011;3135;42.602;23.468;2023-06-10T04:39:18;16.13;;;9.02;;
6203;SDS011;3135;42.602;23.468;2023-06-10T04:41:44;14.45;;;8.90;;
6203;SDS011;3135;42.602;23.468;2023-06-10T04:44:10;12.40;;;8.32;;
6203;SDS011;3135;42.602;23.468;2023-06-10T04:46:36;12.50;;;7.50;;
6203;SDS011;3135;42.602;23.468;2023-06-10T04:49:01;13.65;;;8.02;;
6203;SDS011;3135;42.602;23.468;2023-06-10T04:51:27;13.57;;;8.30;;
6203;SDS011;3135;42.602;23.468;2023-06-10T04:53:53;17.55;;;8.73;;
6203;SDS011;3135;42.602;23.468;2023-06-10T04:56:18;15.63;;;8.90;;
6203;SDS011;3135;42.602;23.468;2023-06-10T04:58:45;16.30;;;9.80;;
6203;SDS011;3135;42.602;23.468;2023-06-10T05:01:10;17.20;;;9.43;;
6203;SDS011;3135;42.602;23.468;2023-06-10T05:03:36;16.63;;;9.87;;
6203;SDS011;3135;42.602;23.468;2023-06-10T05:06:01;15.30;;;9.03;;
6203;SDS011;3135;42.602;23.468;2023-06-10T05:08:26;15.38;;;9.57;;
6203;SDS011;3135;42.602;23.468;2023-06-10T05:10:52;17.70;;;10.13;;
6203;SDS011;3135;42.602;23.468;2023-06-10T05:13:17;18.23;;;10.07;;
6203;SDS011;3135;42.602;23.468;2023-06-10T05:15:43;15.88;;;9.60;;
6203;SDS011;3135;42.602;23.468;2023-06-10T05:18:09;16.35;;;9.57;;
6203;SDS011;3135;42.602;23.468;2023-06-10T05:20:37;15.48;;;9.45;;
6203;SDS011;3135;42.602;23.468;2023-06-10T05:23:03;13.70;;;9.23;;
6203;SDS011;3135;42.602;23.468;2023-06-10T05:25:30;16.88;;;10.35;;
6203;SDS011;3135;42.602;23.468;2023-06-10T05:27:55;16.35;;;10.05;;
6203;SDS011;3135;42.602;23.468;2023-06-10T05:30:21;16.67;;;10.30;;
6203;SDS011;3135;42.602;23.468;2023-06-10T05:32:46;18.25;;;10.23;;
6203;SDS011;3135;42.602;23.468;2023-06-10T05:35:12;17.52;;;9.75;;
6203;SDS011;3135;42.602;23.468;2023-06-10T05:37:38;14.93;;;9.30;;
6203;SDS011;3135;42.602;23.468;2023-06-10T05:40:03;13.97;;;8.20;;
6203;SDS011;3135;42.602;23.468;2023-06-10T05:42:29;14.70;;;9.43;;
6203;SDS011;3135;42.602;23.468;2023-06-10T05:44:55;14.13;;;8.05;;
6203;SDS011;3135;42.602;23.468;2023-06-10T05:47:20;15.03;;;9.23;;
6203;SDS011;3135;42.602;23.468;2023-06-10T05:49:46;15.03;;;9.10;;
6203;SDS011;3135;42.602;23.468;2023-06-10T05:52:13;13.50;;;7.90;;
6203;SDS011;3135;42.602;23.468;2023-06-10T05:54:38;12.00;;;7.47;;
6203;SDS011;3135;42.602;23.468;2023-06-10T05:57:04;13.43;;;7.50;;
6203;SDS011;3135;42.602;23.468;2023-06-10T05:59:30;14.30;;;8.30;;
6203;SDS011;3135;42.602;23.468;2023-06-10T06:01:56;11.52;;;8.20;;
6203;SDS011;3135;42.602;23.468;2023-06-10T06:04:22;13.60;;;8.20;;
6203;SDS011;3135;42.602;23.468;2023-06-10T06:06:47;13.73;;;8.32;;
6203;SDS011;3135;42.602;23.468;2023-06-10T06:09:12;13.10;;;8.77;;
6203;SDS011;3135;42.602;23.468;2023-06-10T06:11:38;14.87;;;8.90;;
6203;SDS011;3135;42.602;23.468;2023-06-10T06:14:03;13.20;;;8.77;;
6203;SDS011;3135;42.602;23.468;2023-06-10T06:16:29;16.77;;;8.93;;
6203;SDS011;3135;42.602;23.468;2023-06-10T06:18:54;15.00;;;8.77;;
6203;SDS011;3135;42.602;23.468;2023-06-10T06:21:20;14.63;;;9.00;;
6203;SDS011;3135;42.602;23.468;2023-06-10T06:23:45;13.43;;;8.10;;
6203;SDS011;3135;42.602;23.468;2023-06-10T06:26:11;14.05;;;8.60;;
6203;SDS011;3135;42.602;23.468;2023-06-10T06:28:36;12.70;;;7.80;;
6203;SDS011;3135;42.602;23.468;2023-06-10T06:31:01;15.57;;;8.40;;
6203;SDS011;3135;42.602;23.468;2023-06-10T06:33:27;16.07;;;8.77;;
6203;SDS011;3135;42.602;23.468;2023-06-10T06:35:52;13.68;;;8.40;;
6203;SDS011;3135;42.602;23.468;2023-06-10T06:38:18;13.57;;;8.80;;
6203;SDS011;3135;42.602;23.468;2023-06-10T06:40:43;17.43;;;8.83;;
6203;SDS011;3135;42.602;23.468;2023-06-10T06:43:08;15.80;;;9.68;;
6203;SDS011;3135;42.602;23.468;2023-06-10T06:45:34;15.30;;;9.17;;
6203;SDS011;3135;42.602;23.468;2023-06-10T06:48:00;16.07;;;8.97;;
6203;SDS011;3135;42.602;23.468;2023-06-10T06:50:25;17.43;;;8.80;;
6203;SDS011;3135;42.602;23.468;2023-06-10T06:52:51;12.40;;;8.45;;
6203;SDS011;3135;42.602;23.468;2023-06-10T06:55:16;14.82;;;9.30;;
6203;SDS011;3135;42.602;23.468;2023-06-10T06:57:41;13.90;;;9.17;;
6203;SDS011;3135;42.602;23.468;2023-06-10T07:00:07;17.57;;;9.67;;
6203;SDS011;3135;42.602;23.468;2023-06-10T07:02:34;13.77;;;8.65;;
6203;SDS011;3135;42.602;23.468;2023-06-10T07:05:00;15.07;;;9.50;;
6203;SDS011;3135;42.602;23.468;2023-06-10T07:07:26;18.65;;;9.75;;
6203;SDS011;3135;42.602;23.468;2023-06-10T07:09:51;15.30;;;9.65;;
6203;SDS011;3135;42.602;23.468;2023-06-10T07:12:17;18.58;;;9.75;;
6203;SDS011;3135;42.602;23.468;2023-06-10T07:14:43;16.55;;;8.35;;
6203;SDS011;3135;42.602;23.468;2023-06-10T07:17:09;13.00;;;8.37;;
6203;SDS011;3135;42.602;23.468;2023-06-10T07:19:35;13.93;;;8.53;;
6203;SDS011;3135;42.602;23.468;2023-06-10T07:22:00;13.83;;;8.83;;
6203;SDS011;3135;42.602;23.468;2023-06-10T07:24:25;14.52;;;8.40;;
6203;SDS011;3135;42.602;23.468;2023-06-10T07:26:51;16.80;;;8.70;;
6203;SDS011;3135;42.602;23.468;2023-06-10T07:29:16;13.63;;;8.10;;
6203;SDS011;3135;42.602;23.468;2023-06-10T07:31:42;13.40;;;8.30;;
6203;SDS011;3135;42.602;23.468;2023-06-10T07:34:07;12.77;;;8.57;;
6203;SDS011;3135;42.602;23.468;2023-06-10T07:36:33;11.95;;;7.80;;
6203;SDS011;3135;42.602;23.468;2023-06-10T07:38:58;15.40;;;7.97;;
6203;SDS011;3135;42.602;23.468;2023-06-10T07:41:24;11.90;;;7.60;;
6203;SDS011;3135;42.602;23.468;2023-06-10T07:43:53;11.18;;;7.35;;
6203;SDS011;3135;42.602;23.468;2023-06-10T07:46:22;11.95;;;7.65;;
6203;SDS011;3135;42.602;23.468;2023-06-10T07:48:48;14.45;;;8.50;;
6203;SDS011;3135;42.602;23.468;2023-06-10T07:51:14;15.00;;;7.53;;
6203;SDS011;3135;42.602;23.468;2023-06-10T07:53:41;11.10;;;7.32;;
6203;SDS011;3135;42.602;23.468;2023-06-10T07:56:06;11.03;;;6.60;;
6203;SDS011;3135;42.602;23.468;2023-06-10T07:58:31;9.60;;;5.67;;
6203;SDS011;3135;42.602;23.468;2023-06-10T08:00:57;13.07;;;5.73;;
6203;SDS011;3135;42.602;23.468;2023-06-10T08:03:22;7.10;;;5.13;;
6203;SDS011;3135;42.602;23.468;2023-06-10T08:05:48;11.40;;;6.77;;
6203;SDS011;3135;42.602;23.468;2023-06-10T08:08:13;11.30;;;6.87;;
6203;SDS011;3135;42.602;23.468;2023-06-10T08:10:39;12.80;;;7.73;;
6203;SDS011;3135;42.602;23.468;2023-06-10T08:13:04;14.67;;;7.80;;
6203;SDS011;3135;42.602;23.468;2023-06-10T08:15:30;14.20;;;8.53;;
6203;SDS011;3135;42.602;23.468;2023-06-10T08:17:55;12.77;;;7.80;;
6203;SDS011;3135;42.602;23.468;2023-06-10T08:20:21;12.85;;;7.35;;
6203;SDS011;3135;42.602;23.468;2023-06-10T08:22:47;11.50;;;7.73;;
6203;SDS011;3135;42.602;23.468;2023-06-10T08:25:12;13.40;;;7.13;;
6203;SDS011;3135;42.602;23.468;2023-06-10T08:27:38;10.65;;;7.72;;
6203;SDS011;3135;42.602;23.468;2023-06-10T08:30:03;13.07;;;8.53;;
6203;SDS011;3135;42.602;23.468;2023-06-10T08:32:30;19.50;;;9.30;;
6203;SDS011;3135;42.602;23.468;2023-06-10T08:34:55;14.97;;;8.10;;
6203;SDS011;3135;42.602;23.468;2023-06-10T08:37:20;15.03;;;8.47;;
6203;SDS011;3135;42.602;23.468;2023-06-10T08:39:46;14.03;;;8.20;;
6203;SDS011;3135;42.602;23.468;2023-06-10T08:42:19;11.80;;;7.43;;
6203;SDS011;3135;42.602;23.468;2023-06-10T08:44:57;6.47;;;5.20;;
6203;SDS011;3135;42.602;23.468;2023-06-10T08:47:24;5.83;;;4.20;;
6203;SDS011;3135;42.602;23.468;2023-06-10T08:49:50;8.70;;;5.45;;
6203;SDS011;3135;42.602;23.468;2023-06-10T08:52:17;5.95;;;3.97;;
6203;SDS011;3135;42.602;23.468;2023-06-10T08:54:48;4.75;;;3.50;;
6203;SDS011;3135;42.602;23.468;2023-06-10T08:57:18;6.07;;;4.03;;
6203;SDS011;3135;42.602;23.468;2023-06-10T08:59:45;5.55;;;3.85;;
6203;SDS011;3135;42.602;23.468;2023-06-10T09:02:11;6.67;;;4.63;;
6203;SDS011;3135;42.602;23.468;2023-06-10T09:04:38;7.38;;;4.75;;
6203;SDS011;3135;42.602;23.468;2023-06-10T09:07:04;7.90;;;3.00;;
6203;SDS011;3135;42.602;23.468;2023-06-10T09:09:31;3.80;;;3.10;;
6203;SDS011;3135;42.602;23.468;2023-06-10T09:11:59;2.85;;;2.65;;
6203;SDS011;3135;42.602;23.468;2023-06-10T09:14:25;3.00;;;2.33;;
6203;SDS011;3135;42.602;23.468;2023-06-10T09:16:50;3.07;;;2.33;;
6203;SDS011;3135;42.602;23.468;2023-06-10T09:19:17;1.75;;;1.65;;
6203;SDS011;3135;42.602;23.468;2023-06-10T09:21:43;1.95;;;1.77;;
6203;SDS011;3135;42.602;23.468;2023-06-10T09:24:09;2.67;;;2.22;;
6203;SDS011;3135;42.602;23.468;2023-06-10T09:26:34;1.93;;;1.83;;
6203;SDS011;3135;42.602;23.468;2023-06-10T09:29:03;2.70;;;2.07;;
6203;SDS011;3135;42.602;23.468;2023-06-10T09:31:30;1.65;;;1.55;;
6203;SDS011;3135;42.602;23.468;2023-06-10T09:34:04;1.75;;;1.65;;
6203;SDS011;3135;42.602;23.468;2023-06-10T09:36:31;2.20;;;2.00;;
6203;SDS011;3135;42.602;23.468;2023-06-10T09:38:58;3.25;;;1.80;;
6203;SDS011;3135;42.602;23.468;2023-06-10T09:41:31;3.50;;;2.10;;
6203;SDS011;3135;42.602;23.468;2023-06-10T09:43:58;2.70;;;2.40;;
6203;SDS011;3135;42.602;23.468;2023-06-10T09:46:23;2.90;;;2.70;;
6203;SDS011;3135;42.602;23.468;2023-06-10T09:48:49;2.72;;;2.05;;
6203;SDS011;3135;42.602;23.468;2023-06-10T09:51:16;2.97;;;2.20;;
6203;SDS011;3135;42.602;23.468;2023-06-10T09:53:48;2.40;;;2.10;;
6203;SDS011;3135;42.602;23.468;2023-06-10T09:56:15;2.40;;;1.83;;
6203;SDS011;3135;42.602;23.468;2023-06-10T09:58:41;2.47;;;1.90;;
6203;SDS011;3135;42.602;23.468;2023-06-10T10:01:09;2.97;;;2.40;;
6203;SDS011;3135;42.602;23.468;2023-06-10T10:03:45;3.75;;;2.80;;
6203;SDS011;3135;42.602;23.468;2023-06-10T10:06:12;5.03;;;2.40;;
6203;SDS011;3135;42.602;23.468;2023-06-10T10:08:39;5.47;;;2.42;;
6203;SDS011;3135;42.602;23.468;2023-06-10T10:11:05;5.93;;;2.80;;
6203;SDS011;3135;42.602;23.468;2023-06-10T10:13:31;5.03;;;2.70;;
6203;SDS011;3135;42.602;23.468;2023-06-10T10:15:59;3.30;;;2.42;;
6203;SDS011;3135;42.602;23.468;2023-06-10T10:18:29;3.78;;;2.40;;
6203;SDS011;3135;42.602;23.468;2023-06-10T10:20:56;2.50;;;2.10;;
6203;SDS011;3135;42.602;23.468;2023-06-10T10:23:34;3.45;;;2.20;;
6203;SDS011;3135;42.602;23.468;2023-06-10T10:26:07;3.15;;;2.83;;
6203;SDS011;3135;42.602;23.468;2023-06-10T10:28:41;3.13;;;2.40;;
6203;SDS011;3135;42.602;23.468;2023-06-10T10:31:14;3.30;;;2.20;;
6203;SDS011;3135;42.602;23.468;2023-06-10T10:33:59;2.63;;;2.20;;
6203;SDS011;3135;42.602;23.468;2023-06-10T10:36:26;2.47;;;2.28;;
6203;SDS011;3135;42.602;23.468;2023-06-10T10:38:52;2.60;;;2.40;;
6203;SDS011;3135;42.602;23.468;2023-06-10T10:41:19;3.28;;;2.40;;
6203;SDS011;3135;42.602;23.468;2023-06-10T10:43:46;2.53;;;2.33;;
6203;SDS011;3135;42.602;23.468;2023-06-10T10:46:16;2.50;;;2.30;;
6203;SDS011;3135;42.602;23.468;2023-06-10T10:48:42;4.05;;;2.38;;
6203;SDS011;3135;42.602;23.468;2023-06-10T10:51:09;2.35;;;2.13;;
6203;SDS011;3135;42.602;23.468;2023-06-10T10:53:38;2.70;;;2.50;;
6203;SDS011;3135;42.602;23.468;2023-06-10T10:56:05;3.70;;;2.42;;
6203;SDS011;3135;42.602;23.468;2023-06-10T10:58:32;5.88;;;2.60;;
6203;SDS011;3135;42.602;23.468;2023-06-10T11:00:57;3.33;;;3.03;;
6203;SDS011;3135;42.602;23.468;2023-06-10T11:03:24;3.20;;;2.43;;
6203;SDS011;3135;42.602;23.468;2023-06-10T11:05:53;6.25;;;5.53;;
6203;SDS011;3135;42.602;23.468;2023-06-10T11:10:54;2.83;;;2.30;;
6203;SDS011;3135;42.602;23.468;2023-06-10T11:13:20;2.53;;;2.30;;
6203;SDS011;3135;42.602;23.468;2023-06-10T11:15:47;2.65;;;2.42;;
6203;SDS011;3135;42.602;23.468;2023-06-10T11:18:18;3.13;;;2.42;;
6203;SDS011;3135;42.602;23.468;2023-06-10T11:31:25;3.28;;;2.00;;
6203;SDS011;3135;42.602;23.468;2023-06-10T11:33:53;2.92;;;2.22;;
6203;SDS011;3135;42.602;23.468;2023-06-10T11:36:20;2.50;;;2.08;;
6203;SDS011;3135;42.602;23.468;2023-06-10T11:38:46;3.05;;;2.10;;
6203;SDS011;3135;42.602;23.468;2023-06-10T11:41:13;11.05;;;2.72;;
6203;SDS011;3135;42.602;23.468;2023-06-10T11:43:43;2.63;;;2.30;;
6203;SDS011;3135;42.602;23.468;2023-06-10T11:46:10;2.40;;;2.20;;
6203;SDS011;3135;42.602;23.468;2023-06-10T11:48:36;3.58;;;2.20;;
6203;SDS011;3135;42.602;23.468;2023-06-10T11:51:08;2.43;;;2.23;;
6203;SDS011;3135;42.602;23.468;2023-06-10T11:53:34;3.47;;;2.00;;
6203;SDS011;3135;42.602;23.468;2023-06-10T11:55:59;6.40;;;2.63;;
6203;SDS011;3135;42.602;23.468;2023-06-10T11:58:25;4.03;;;2.30;;
6203;SDS011;3135;42.602;23.468;2023-06-10T12:00:51;5.93;;;2.60;;
6203;SDS011;3135;42.602;23.468;2023-06-10T12:03:26;2.50;;;2.30;;
6203;SDS011;3135;42.602;23.468;2023-06-10T12:05:59;2.73;;;2.50;;
6203;SDS011;3135;42.602;23.468;2023-06-10T12:08:25;2.35;;;2.15;;
6203;SDS011;3135;42.602;23.468;2023-06-10T12:10:52;2.53;;;2.30;;
6203;SDS011;3135;42.602;23.468;2023-06-10T12:13:18;6.05;;;2.40;;
6203;SDS011;3135;42.602;23.468;2023-06-10T12:15:44;2.97;;;2.22;;
6203;SDS011;3135;42.602;23.468;2023-06-10T12:18:20;4.10;;;2.30;;
6203;SDS011;3135;42.602;23.468;2023-06-10T12:20:46;5.82;;;3.47;;
6203;SDS011;3135;42.602;23.468;2023-06-10T12:23:13;12.38;;;6.75;;
6203;SDS011;3135;42.602;23.468;2023-06-10T12:25:43;2.63;;;2.43;;
6203;SDS011;3135;42.602;23.468;2023-06-10T12:28:25;2.33;;;2.13;;
6203;SDS011;3135;42.602;23.468;2023-06-10T12:30:51;2.47;;;2.30;;
6203;SDS011;3135;42.602;23.468;2023-06-10T12:33:30;2.28;;;2.10;;
6203;SDS011;3135;42.602;23.468;2023-06-10T12:35:56;2.40;;;2.07;;
6203;SDS011;3135;42.602;23.468;2023-06-10T12:38:22;2.57;;;1.90;;
6203;SDS011;3135;42.602;23.468;2023-06-10T12:40:49;2.55;;;2.00;;
6203;SDS011;3135;42.602;23.468;2023-06-10T12:43:20;2.30;;;2.10;;
6203;SDS011;3135;42.602;23.468;2023-06-10T12:45:47;2.38;;;2.17;;
6203;SDS011;3135;42.602;23.468;2023-06-10T12:48:19;3.30;;;2.40;;
6203;SDS011;3135;42.602;23.468;2023-06-10T12:50:55;3.00;;;2.20;;
6203;SDS011;3135;42.602;23.468;2023-06-10T12:53:22;3.57;;;2.20;;
6203;SDS011;3135;42.602;23.468;2023-06-10T12:55:50;3.22;;;2.50;;
6203;SDS011;3135;42.602;23.468;2023-06-10T12:58:16;2.70;;;2.28;;
6203;SDS011;3135;42.602;23.468;2023-06-10T13:00:41;4.97;;;2.47;;
6203;SDS011;3135;42.602;23.468;2023-06-10T13:03:07;3.55;;;2.60;;
6203;SDS011;3135;42.602;23.468;2023-06-10T13:05:35;2.67;;;2.30;;
6203;SDS011;3135;42.602;23.468;2023-06-10T13:08:03;3.22;;;2.30;;
6203;SDS011;3135;42.602;23.468;2023-06-10T13:10:32;3.05;;;2.17;;
6203;SDS011;3135;42.602;23.468;2023-06-10T13:12:59;2.50;;;2.30;;
6203;SDS011;3135;42.602;23.468;2023-06-10T13:15:26;4.72;;;2.30;;
6203;SDS011;3135;42.602;23.468;2023-06-10T13:17:51;5.80;;;2.50;;
6203;SDS011;3135;42.602;23.468;2023-06-10T13:20:17;2.40;;;2.20;;
6203;SDS011;3135;42.602;23.468;2023-06-10T13:22:44;3.08;;;2.10;;
6203;SDS011;3135;42.602;23.468;2023-06-10T13:25:10;2.50;;;2.30;;
6203;SDS011;3135;42.602;23.468;2023-06-10T13:27:36;2.63;;;2.30;;
6203;SDS011;3135;42.602;23.468;2023-06-10T13:30:05;2.40;;;2.20;;
6203;SDS011;3135;42.602;23.468;2023-06-10T13:32:31;2.50;;;2.30;;
6203;SDS011;3135;42.602;23.468;2023-06-10T13:34:57;2.97;;;2.17;;
6203;SDS011;3135;42.602;23.468;2023-06-10T13:37:22;4.00;;;2.40;;
6203;SDS011;3135;42.602;23.468;2023-06-10T13:39:48;3.75;;;2.20;;
6203;SDS011;3135;42.602;23.468;2023-06-10T13:42:15;3.35;;;2.40;;
6203;SDS011;3135;42.602;23.468;2023-06-10T13:44:44;3.60;;;2.50;;
6203;SDS011;3135;42.602;23.468;2023-06-10T13:47:09;2.67;;;2.17;;
6203;SDS011;3135;42.602;23.468;2023-06-10T13:49:35;2.60;;;2.20;;
6203;SDS011;3135;42.602;23.468;2023-06-10T13:52:01;3.43;;;2.30;;
6203;SDS011;3135;42.602;23.468;2023-06-10T13:54:27;2.50;;;2.30;;
6203;SDS011;3135;42.602;23.468;2023-06-10T13:56:52;7.53;;;3.10;;
6203;SDS011;3135;42.602;23.468;2023-06-10T13:59:19;3.08;;;2.38;;
6203;SDS011;3135;42.602;23.468;2023-06-10T14:01:45;4.80;;;2.33;;
6203;SDS011;3135;42.602;23.468;2023-06-10T14:04:11;3.80;;;2.58;;
6203;SDS011;3135;42.602;23.468;2023-06-10T14:06:36;6.87;;;2.67;;
6203;SDS011;3135;42.602;23.468;2023-06-10T14:09:02;3.53;;;2.67;;
6203;SDS011;3135;42.602;23.468;2023-06-10T14:11:28;5.47;;;3.00;;
6203;SDS011;3135;42.602;23.468;2023-06-10T14:13:53;4.60;;;3.10;;
6203;SDS011;3135;42.602;23.468;2023-06-10T14:16:21;6.75;;;2.70;;
6203;SDS011;3135;42.602;23.468;2023-06-10T14:18:46;5.73;;;2.70;;
6203;SDS011;3135;42.602;23.468;2023-06-10T14:21:12;8.90;;;2.70;;
6203;SDS011;3135;42.602;23.468;2023-06-10T14:23:37;7.37;;;3.20;;
6203;SDS011;3135;42.602;23.468;2023-06-10T14:26:03;8.63;;;2.97;;
6203;SDS011;3135;42.602;23.468;2023-06-10T14:28:28;5.57;;;3.10;;
6203;SDS011;3135;42.602;23.468;2023-06-10T14:30:54;6.87;;;3.10;;
6203;SDS011;3135;42.602;23.468;2023-06-10T14:33:20;3.70;;;2.80;;
6203;SDS011;3135;42.602;23.468;2023-06-10T14:35:45;4.10;;;2.80;;
6203;SDS011;3135;42.602;23.468;2023-06-10T14:38:10;4.65;;;2.83;;
6203;SDS011;3135;42.602;23.468;2023-06-10T14:40:36;5.97;;;3.40;;
6203;SDS011;3135;42.602;23.468;2023-06-10T14:43:01;3.30;;;2.90;;
6203;SDS011;3135;42.602;23.468;2023-06-10T14:45:29;3.30;;;2.60;;
6203;SDS011;3135;42.602;23.468;2023-06-10T14:47:55;10.17;;;3.17;;
6203;SDS011;3135;42.602;23.468;2023-06-10T14:50:20;2.83;;;2.63;;
6203;SDS011;3135;42.602;23.468;2023-06-10T14:52:46;4.63;;;2.83;;
6203;SDS011;3135;42.602;23.468;2023-06-10T14:55:11;3.30;;;2.43;;
6203;SDS011;3135;42.602;23.468;2023-06-10T14:57:36;3.13;;;2.63;;
6203;SDS011;3135;42.602;23.468;2023-06-10T15:00:02;3.47;;;2.50;;
6203;SDS011;3135;42.602;23.468;2023-06-10T15:02:27;2.50;;;2.30;;
6203;SDS011;3135;42.602;23.468;2023-06-10T15:04:53;3.17;;;2.20;;
6203;SDS011;3135;42.602;23.468;2023-06-10T15:07:18;2.58;;;2.35;;
6203;SDS011;3135;42.602;23.468;2023-06-10T15:09:44;2.50;;;2.30;;
6203;SDS011;3135;42.602;23.468;2023-06-10T15:12:09;3.50;;;2.40;;